sensor_id;sensor_type;location;lat;lon;timestamp;P1;P2;P0
73146;PMS7003;61345;48.922;2.244;2022-07-23T00:01:28;17.25;16.00;11.75
73146;PMS7003;61345;48.922;2.244;2022-07-23T00:03:54;21.75;18.75;13.00
73146;PMS7003;61345;48.922;2.244;2022-07-23T00:06:20;22.75;18.00;13.50
73146;PMS7003;61345;48.922;2.244;2022-07-23T00:08:46;26.25;20.00;13.50
73146;PMS7003;61345;48.922;2.244;2022-07-23T00:11:12;24.00;23.00;14.50
73146;PMS7003;61345;48.922;2.244;2022-07-23T00:13:37;18.75;16.50;13.00
73146;PMS7003;61345;48.922;2.244;2022-07-23T00:16:03;22.75;20.00;13.75
73146;PMS7003;61345;48.922;2.244;2022-07-23T00:18:28;28.25;25.00;16.25
73146;PMS7003;61345;48.922;2.244;2022-07-23T00:20:54;30.50;28.00;19.00
73146;PMS7003;61345;48.922;2.244;2022-07-23T00:23:19;30.00;27.25;19.00
73146;PMS7003;61345;48.922;2.244;2022-07-23T00:25:44;35.50;28.00;19.00
73146;PMS7003;61345;48.922;2.244;2022-07-23T00:28:10;30.25;27.25;18.00
73146;PMS7003;61345;48.922;2.244;2022-07-23T00:30:36;28.50;24.00;17.50
73146;PMS7003;61345;48.922;2.244;2022-07-23T00:33:03;30.50;22.75;13.50
73146;PMS7003;61345;48.922;2.244;2022-07-23T00:35:33;28.75;24.50;17.00
73146;PMS7003;61345;48.922;2.244;2022-07-23T00:38:00;27.75;25.00;16.25
73146;PMS7003;61345;48.922;2.244;2022-07-23T00:40:26;32.25;26.25;16.00
73146;PMS7003;61345;48.922;2.244;2022-07-23T00:42:52;32.50;29.00;19.00
73146;PMS7003;61345;48.922;2.244;2022-07-23T00:45:18;28.25;27.75;17.25
73146;PMS7003;61345;48.922;2.244;2022-07-23T00:47:43;35.50;27.25;19.25
73146;PMS7003;61345;48.922;2.244;2022-07-23T00:50:09;35.25;32.00;20.00
73146;PMS7003;61345;48.922;2.244;2022-07-23T00:52:36;30.50;28.00;20.00
73146;PMS7003;61345;48.922;2.244;2022-07-23T00:55:03;31.00;25.50;16.75
73146;PMS7003;61345;48.922;2.244;2022-07-23T00:57:29;30.50;24.25;14.50
73146;PMS7003;61345;48.922;2.244;2022-07-23T00:59:54;26.50;24.75;16.00
73146;PMS7003;61345;48.922;2.244;2022-07-23T01:02:20;24.00;22.50;15.50
73146;PMS7003;61345;48.922;2.244;2022-07-23T01:04:45;28.50;26.25;16.75
73146;PMS7003;61345;48.922;2.244;2022-07-23T01:07:11;25.25;23.50;14.25
73146;PMS7003;61345;48.922;2.244;2022-07-23T01:09:36;26.25;22.00;14.25
73146;PMS7003;61345;48.922;2.244;2022-07-23T01:12:02;25.50;24.25;15.00
73146;PMS7003;61345;48.922;2.244;2022-07-23T01:14:28;23.25;22.75;15.00
73146;PMS7003;61345;48.922;2.244;2022-07-23T01:16:53;27.75;21.75;14.25
73146;PMS7003;61345;48.922;2.244;2022-07-23T01:19:18;24.25;20.75;14.25
73146;PMS7003;61345;48.922;2.244;2022-07-23T01:21:48;25.75;22.00;14.00
73146;PMS7003;61345;48.922;2.244;2022-07-23T01:24:15;24.25;19.25;13.75
73146;PMS7003;61345;48.922;2.244;2022-07-23T01:26:43;20.25;19.50;12.00
73146;PMS7003;61345;48.922;2.244;2022-07-23T01:29:09;22.25;19.75;12.75
73146;PMS7003;61345;48.922;2.244;2022-07-23T01:31:35;25.75;19.50;13.00
73146;PMS7003;61345;48.922;2.244;2022-07-23T01:34:00;20.25;18.50;13.00
73146;PMS7003;61345;48.922;2.244;2022-07-23T01:36:26;25.25;21.75;14.00
73146;PMS7003;61345;48.922;2.244;2022-07-23T01:38:52;24.75;20.75;12.75
73146;PMS7003;61345;48.922;2.244;2022-07-23T01:41:17;19.25;18.00;12.00
73146;PMS7003;61345;48.922;2.244;2022-07-23T01:43:43;21.75;17.75;13.00
73146;PMS7003;61345;48.922;2.244;2022-07-23T01:46:08;22.00;20.25;13.25
73146;PMS7003;61345;48.922;2.244;2022-07-23T01:48:33;22.50;19.50;12.50
73146;PMS7003;61345;48.922;2.244;2022-07-23T01:50:59;25.00;20.25;13.00
73146;PMS7003;61345;48.922;2.244;2022-07-23T01:53:24;19.75;18.25;12.25
73146;PMS7003;61345;48.922;2.244;2022-07-23T01:55:49;22.75;18.50;12.25
73146;PMS7003;61345;48.922;2.244;2022-07-23T01:58:15;20.75;20.50;14.00
73146;PMS7003;61345;48.922;2.244;2022-07-23T02:00:40;20.50;18.00;12.75
73146;PMS7003;61345;48.922;2.244;2022-07-23T02:03:05;23.75;18.25;12.75
73146;PMS7003;61345;48.922;2.244;2022-07-23T02:05:31;16.75;15.75;10.75
73146;PMS7003;61345;48.922;2.244;2022-07-23T02:07:57;18.50;16.75;11.00
73146;PMS7003;61345;48.922;2.244;2022-07-23T02:10:23;20.25;17.00;12.25
73146;PMS7003;61345;48.922;2.244;2022-07-23T02:12:49;21.50;16.00;10.00
73146;PMS7003;61345;48.922;2.244;2022-07-23T02:15:14;16.75;16.00;11.00
73146;PMS7003;61345;48.922;2.244;2022-07-23T02:17:40;20.75;18.75;11.00
73146;PMS7003;61345;48.922;2.244;2022-07-23T02:20:06;24.00;18.00;12.25
73146;PMS7003;61345;48.922;2.244;2022-07-23T02:22:32;20.25;15.75;11.50
73146;PMS7003;61345;48.922;2.244;2022-07-23T02:24:57;19.75;18.00;11.00
73146;PMS7003;61345;48.922;2.244;2022-07-23T02:27:22;21.50;16.50;11.25
73146;PMS7003;61345;48.922;2.244;2022-07-23T02:29:48;18.00;17.00;11.75
73146;PMS7003;61345;48.922;2.244;2022-07-23T02:32:14;22.00;17.50;12.00
73146;PMS7003;61345;48.922;2.244;2022-07-23T02:34:39;18.25;16.25;11.00
73146;PMS7003;61345;48.922;2.244;2022-07-23T02:37:04;18.00;18.00;12.75
73146;PMS7003;61345;48.922;2.244;2022-07-23T02:39:30;21.50;16.25;10.25
73146;PMS7003;61345;48.922;2.244;2022-07-23T02:41:56;21.25;15.75;10.00
73146;PMS7003;61345;48.922;2.244;2022-07-23T02:44:21;16.00;15.00;10.50
73146;PMS7003;61345;48.922;2.244;2022-07-23T02:46:47;18.50;16.00;11.00
73146;PMS7003;61345;48.922;2.244;2022-07-23T02:49:12;19.50;18.00;10.25
73146;PMS7003;61345;48.922;2.244;2022-07-23T02:51:37;17.00;15.75;11.00
73146;PMS7003;61345;48.922;2.244;2022-07-23T02:54:03;20.75;15.25;11.50
73146;PMS7003;61345;48.922;2.244;2022-07-23T02:56:28;15.75;14.50;10.25
73146;PMS7003;61345;48.922;2.244;2022-07-23T02:58:53;16.75;15.00;10.25
73146;PMS7003;61345;48.922;2.244;2022-07-23T03:01:19;16.75;16.00;10.75
73146;PMS7003;61345;48.922;2.244;2022-07-23T03:03:44;19.75;17.75;12.50
73146;PMS7003;61345;48.922;2.244;2022-07-23T03:06:09;17.50;15.00;11.00
73146;PMS7003;61345;48.922;2.244;2022-07-23T03:08:35;22.00;16.25;11.25
73146;PMS7003;61345;48.922;2.244;2022-07-23T03:11:00;20.75;16.00;10.50
73146;PMS7003;61345;48.922;2.244;2022-07-23T03:13:25;18.00;13.75;10.00
73146;PMS7003;61345;48.922;2.244;2022-07-23T03:15:51;14.75;14.00;9.25
73146;PMS7003;61345;48.922;2.244;2022-07-23T03:18:16;21.00;13.00;10.00
73146;PMS7003;61345;48.922;2.244;2022-07-23T03:20:41;17.50;14.00;9.25
73146;PMS7003;61345;48.922;2.244;2022-07-23T03:23:07;17.25;15.00;11.00
73146;PMS7003;61345;48.922;2.244;2022-07-23T03:25:32;18.25;17.00;11.50
73146;PMS7003;61345;48.922;2.244;2022-07-23T03:27:57;17.00;15.00;11.00
73146;PMS7003;61345;48.922;2.244;2022-07-23T03:30:23;15.75;14.25;10.00
73146;PMS7003;61345;48.922;2.244;2022-07-23T03:32:48;16.75;14.75;9.00
73146;PMS7003;61345;48.922;2.244;2022-07-23T03:35:13;15.00;12.75;10.50
73146;PMS7003;61345;48.922;2.244;2022-07-23T03:37:39;21.25;16.50;11.00
73146;PMS7003;61345;48.922;2.244;2022-07-23T03:40:04;15.75;14.50;10.00
73146;PMS7003;61345;48.922;2.244;2022-07-23T03:42:30;14.25;13.75;11.00
73146;PMS7003;61345;48.922;2.244;2022-07-23T03:44:56;17.75;15.00;10.00
73146;PMS7003;61345;48.922;2.244;2022-07-23T03:47:21;17.00;14.25;11.00
73146;PMS7003;61345;48.922;2.244;2022-07-23T03:49:47;21.00;17.25;11.00
73146;PMS7003;61345;48.922;2.244;2022-07-23T03:52:13;23.50;17.00;11.50
73146;PMS7003;61345;48.922;2.244;2022-07-23T03:54:39;16.75;16.00;10.75
73146;PMS7003;61345;48.922;2.244;2022-07-23T03:57:04;20.25;14.75;11.25
73146;PMS7003;61345;48.922;2.244;2022-07-23T03:59:29;19.75;15.50;10.00
73146;PMS7003;61345;48.922;2.244;2022-07-23T04:01:55;15.75;14.75;10.75
73146;PMS7003;61345;48.922;2.244;2022-07-23T04:04:20;16.25;15.00;11.00
73146;PMS7003;61345;48.922;2.244;2022-07-23T04:06:45;20.50;17.00;11.25
73146;PMS7003;61345;48.922;2.244;2022-07-23T04:09:11;18.25;16.75;11.50
73146;PMS7003;61345;48.922;2.244;2022-07-23T04:11:36;19.00;15.00;9.00
73146;PMS7003;61345;48.922;2.244;2022-07-23T04:14:02;26.75;16.00;11.00
73146;PMS7003;61345;48.922;2.244;2022-07-23T04:16:27;19.25;17.50;12.25
73146;PMS7003;61345;48.922;2.244;2022-07-23T04:18:53;20.00;17.00;11.00
73146;PMS7003;61345;48.922;2.244;2022-07-23T04:21:19;17.50;15.50;11.00
73146;PMS7003;61345;48.922;2.244;2022-07-23T04:23:44;19.25;15.00;10.00
73146;PMS7003;61345;48.922;2.244;2022-07-23T04:26:09;20.00;18.50;11.75
73146;PMS7003;61345;48.922;2.244;2022-07-23T04:28:34;18.00;16.00;10.75
73146;PMS7003;61345;48.922;2.244;2022-07-23T04:31:00;19.00;16.75;11.50
73146;PMS7003;61345;48.922;2.244;2022-07-23T04:33:25;17.75;16.25;12.00
73146;PMS7003;61345;48.922;2.244;2022-07-23T04:35:51;17.50;13.00;10.25
73146;PMS7003;61345;48.922;2.244;2022-07-23T04:38:16;17.25;14.25;11.25
73146;PMS7003;61345;48.922;2.244;2022-07-23T04:40:41;19.50;19.00;11.00
73146;PMS7003;61345;48.922;2.244;2022-07-23T04:43:07;21.50;15.75;11.25
73146;PMS7003;61345;48.922;2.244;2022-07-23T04:45:32;16.00;15.00;11.00
73146;PMS7003;61345;48.922;2.244;2022-07-23T04:47:57;19.00;15.00;10.00
73146;PMS7003;61345;48.922;2.244;2022-07-23T04:50:23;15.50;15.00;10.75
73146;PMS7003;61345;48.922;2.244;2022-07-23T04:52:49;18.50;14.75;9.75
73146;PMS7003;61345;48.922;2.244;2022-07-23T04:55:14;21.75;17.00;11.25
73146;PMS7003;61345;48.922;2.244;2022-07-23T04:57:40;19.75;16.25;10.75
73146;PMS7003;61345;48.922;2.244;2022-07-23T05:00:05;17.00;16.00;11.25
73146;PMS7003;61345;48.922;2.244;2022-07-23T05:02:31;20.50;15.00;10.75
73146;PMS7003;61345;48.922;2.244;2022-07-23T05:04:57;19.50;16.25;11.50
73146;PMS7003;61345;48.922;2.244;2022-07-23T05:07:22;17.75;13.75;9.75
73146;PMS7003;61345;48.922;2.244;2022-07-23T05:09:48;19.25;15.00;11.00
73146;PMS7003;61345;48.922;2.244;2022-07-23T05:12:13;17.50;16.00;10.75
73146;PMS7003;61345;48.922;2.244;2022-07-23T05:14:38;20.50;15.50;11.25
73146;PMS7003;61345;48.922;2.244;2022-07-23T05:17:04;18.25;15.50;11.25
73146;PMS7003;61345;48.922;2.244;2022-07-23T05:19:29;24.25;19.50;12.25
73146;PMS7003;61345;48.922;2.244;2022-07-23T05:21:54;19.75;16.50;11.00
73146;PMS7003;61345;48.922;2.244;2022-07-23T05:24:20;21.25;17.75;12.75
73146;PMS7003;61345;48.922;2.244;2022-07-23T05:26:45;17.00;16.25;12.00
73146;PMS7003;61345;48.922;2.244;2022-07-23T05:29:10;20.75;16.75;12.00
73146;PMS7003;61345;48.922;2.244;2022-07-23T05:31:36;19.00;16.75;11.25
73146;PMS7003;61345;48.922;2.244;2022-07-23T05:34:01;19.50;17.00;12.25
73146;PMS7003;61345;48.922;2.244;2022-07-23T05:36:27;18.75;15.50;11.75
73146;PMS7003;61345;48.922;2.244;2022-07-23T05:38:52;19.25;19.00;12.00
73146;PMS7003;61345;48.922;2.244;2022-07-23T05:41:17;19.00;17.25;12.75
73146;PMS7003;61345;48.922;2.244;2022-07-23T05:43:43;21.50;18.00;13.00
73146;PMS7003;61345;48.922;2.244;2022-07-23T05:46:08;17.25;15.25;10.75
73146;PMS7003;61345;48.922;2.244;2022-07-23T05:48:34;24.75;19.00;12.75
73146;PMS7003;61345;48.922;2.244;2022-07-23T05:50:59;21.00;17.75;12.00
73146;PMS7003;61345;48.922;2.244;2022-07-23T05:53:25;21.75;19.00;12.00
73146;PMS7003;61345;48.922;2.244;2022-07-23T05:55:51;21.50;19.75;12.25
73146;PMS7003;61345;48.922;2.244;2022-07-23T05:58:16;25.00;21.50;12.50
73146;PMS7003;61345;48.922;2.244;2022-07-23T06:00:41;25.25;21.00;13.25
73146;PMS7003;61345;48.922;2.244;2022-07-23T06:03:07;25.75;21.50;14.50
73146;PMS7003;61345;48.922;2.244;2022-07-23T06:05:32;33.50;26.00;16.00
73146;PMS7003;61345;48.922;2.244;2022-07-23T06:07:57;29.75;28.25;16.50
73146;PMS7003;61345;48.922;2.244;2022-07-23T06:10:23;33.50;28.25;19.00
73146;PMS7003;61345;48.922;2.244;2022-07-23T06:12:48;35.00;26.75;16.75
73146;PMS7003;61345;48.922;2.244;2022-07-23T06:15:13;37.75;27.00;16.25
73146;PMS7003;61345;48.922;2.244;2022-07-23T06:17:39;38.00;30.00;18.00
73146;PMS7003;61345;48.922;2.244;2022-07-23T06:20:08;38.00;31.75;20.00
73146;PMS7003;61345;48.922;2.244;2022-07-23T06:22:35;34.00;30.00;20.00
73146;PMS7003;61345;48.922;2.244;2022-07-23T06:25:01;41.75;30.75;20.00
73146;PMS7003;61345;48.922;2.244;2022-07-23T06:27:26;40.75;32.50;20.00
73146;PMS7003;61345;48.922;2.244;2022-07-23T06:29:51;45.25;32.75;20.25
73146;PMS7003;61345;48.922;2.244;2022-07-23T06:32:17;40.75;32.75;20.00
73146;PMS7003;61345;48.922;2.244;2022-07-23T06:34:42;41.75;32.00;21.50
73146;PMS7003;61345;48.922;2.244;2022-07-23T06:37:08;43.75;33.00;20.00
73146;PMS7003;61345;48.922;2.244;2022-07-23T06:39:33;43.25;35.25;22.00
73146;PMS7003;61345;48.922;2.244;2022-07-23T06:41:58;48.00;35.25;20.75
73146;PMS7003;61345;48.922;2.244;2022-07-23T06:44:24;40.00;31.00;19.50
73146;PMS7003;61345;48.922;2.244;2022-07-23T06:46:49;46.75;35.75;21.00
73146;PMS7003;61345;48.922;2.244;2022-07-23T06:49:14;48.25;33.50;20.00
73146;PMS7003;61345;48.922;2.244;2022-07-23T06:51:40;42.00;32.50;20.25
73146;PMS7003;61345;48.922;2.244;2022-07-23T06:54:05;50.00;38.00;22.00
73146;PMS7003;61345;48.922;2.244;2022-07-23T06:56:30;43.00;34.00;20.00
73146;PMS7003;61345;48.922;2.244;2022-07-23T06:58:56;51.50;36.25;21.75
73146;PMS7003;61345;48.922;2.244;2022-07-23T07:01:21;44.75;34.50;21.50
73146;PMS7003;61345;48.922;2.244;2022-07-23T07:03:47;50.25;37.00;23.00
73146;PMS7003;61345;48.922;2.244;2022-07-23T07:06:12;46.00;35.75;21.00
73146;PMS7003;61345;48.922;2.244;2022-07-23T07:08:37;45.75;33.75;20.75
73146;PMS7003;61345;48.922;2.244;2022-07-23T07:11:03;44.75;34.25;20.00
73146;PMS7003;61345;48.922;2.244;2022-07-23T07:13:28;48.25;36.50;22.00
73146;PMS7003;61345;48.922;2.244;2022-07-23T07:15:53;47.50;36.00;22.00
73146;PMS7003;61345;48.922;2.244;2022-07-23T07:18:19;48.25;34.50;21.25
73146;PMS7003;61345;48.922;2.244;2022-07-23T07:20:46;44.75;35.00;20.75
73146;PMS7003;61345;48.922;2.244;2022-07-23T07:23:11;49.00;36.75;21.75
73146;PMS7003;61345;48.922;2.244;2022-07-23T07:25:37;44.75;35.75;23.00
73146;PMS7003;61345;48.922;2.244;2022-07-23T07:28:02;48.00;36.00;22.50
73146;PMS7003;61345;48.922;2.244;2022-07-23T07:30:28;47.00;36.00;22.00
73146;PMS7003;61345;48.922;2.244;2022-07-23T07:32:53;52.00;38.50;22.00
73146;PMS7003;61345;48.922;2.244;2022-07-23T07:35:19;49.75;35.75;23.00
73146;PMS7003;61345;48.922;2.244;2022-07-23T07:37:44;49.75;35.00;19.75
73146;PMS7003;61345;48.922;2.244;2022-07-23T07:40:09;48.00;38.00;22.50
73146;PMS7003;61345;48.922;2.244;2022-07-23T07:42:43;48.50;33.50;21.75
73146;PMS7003;61345;48.922;2.244;2022-07-23T07:45:12;47.50;38.00;23.00
73146;PMS7003;61345;48.922;2.244;2022-07-23T07:47:37;52.75;39.00;24.25
73146;PMS7003;61345;48.922;2.244;2022-07-23T07:50:02;48.50;35.50;22.50
73146;PMS7003;61345;48.922;2.244;2022-07-23T07:52:28;47.75;36.50;22.00
73146;PMS7003;61345;48.922;2.244;2022-07-23T07:54:53;49.75;37.25;23.00
73146;PMS7003;61345;48.922;2.244;2022-07-23T07:57:18;50.25;35.50;23.00
73146;PMS7003;61345;48.922;2.244;2022-07-23T07:59:44;46.25;35.75;21.75
73146;PMS7003;61345;48.922;2.244;2022-07-23T08:02:09;46.75;36.25;21.75
73146;PMS7003;61345;48.922;2.244;2022-07-23T08:04:34;48.00;34.50;22.00
73146;PMS7003;61345;48.922;2.244;2022-07-23T08:07:00;45.50;33.25;22.00
73146;PMS7003;61345;48.922;2.244;2022-07-23T08:09:25;48.50;33.50;21.75
73146;PMS7003;61345;48.922;2.244;2022-07-23T08:11:50;47.50;35.50;21.75
73146;PMS7003;61345;48.922;2.244;2022-07-23T08:14:16;40.75;31.50;21.25
73146;PMS7003;61345;48.922;2.244;2022-07-23T08:16:42;44.25;33.50;22.00
73146;PMS7003;61345;48.922;2.244;2022-07-23T08:19:07;31.25;19.75;8.00
73146;PMS7003;61345;48.922;2.244;2022-07-23T08:21:33;39.50;32.25;19.75
73146;PMS7003;61345;48.922;2.244;2022-07-23T08:23:58;47.50;35.00;20.75
73146;PMS7003;61345;48.922;2.244;2022-07-23T08:26:23;40.25;31.50;20.00
73146;PMS7003;61345;48.922;2.244;2022-07-23T08:28:49;40.50;34.00;20.00
73146;PMS7003;61345;48.922;2.244;2022-07-23T08:31:14;46.50;33.50;21.25
73146;PMS7003;61345;48.922;2.244;2022-07-23T08:33:41;42.25;33.00;20.25
73146;PMS7003;61345;48.922;2.244;2022-07-23T08:36:06;44.50;32.25;20.25
73146;PMS7003;61345;48.922;2.244;2022-07-23T08:38:32;46.50;37.00;22.25
73146;PMS7003;61345;48.922;2.244;2022-07-23T08:40:58;46.25;32.00;20.00
73146;PMS7003;61345;48.922;2.244;2022-07-23T08:43:24;44.50;33.75;21.50
73146;PMS7003;61345;48.922;2.244;2022-07-23T08:45:55;30.75;29.00;17.00
73146;PMS7003;61345;48.922;2.244;2022-07-23T08:48:23;42.00;33.50;20.00
73146;PMS7003;61345;48.922;2.244;2022-07-23T08:50:51;40.50;31.50;20.00
73146;PMS7003;61345;48.922;2.244;2022-07-23T08:53:17;45.50;33.75;21.25
73146;PMS7003;61345;48.922;2.244;2022-07-23T08:55:44;43.25;30.00;19.50
73146;PMS7003;61345;48.922;2.244;2022-07-23T08:58:10;41.50;32.75;21.50
73146;PMS7003;61345;48.922;2.244;2022-07-23T09:00:36;42.50;33.50;20.25
73146;PMS7003;61345;48.922;2.244;2022-07-23T09:03:01;46.75;33.00;19.75
73146;PMS7003;61345;48.922;2.244;2022-07-23T09:05:27;38.25;28.75;17.75
73146;PMS7003;61345;48.922;2.244;2022-07-23T09:08:03;41.25;32.25;20.00
73146;PMS7003;61345;48.922;2.244;2022-07-23T09:10:28;39.50;32.50;20.75
73146;PMS7003;61345;48.922;2.244;2022-07-23T09:12:54;41.75;31.00;19.50
73146;PMS7003;61345;48.922;2.244;2022-07-23T09:15:19;44.25;32.50;21.25
73146;PMS7003;61345;48.922;2.244;2022-07-23T09:17:44;44.00;35.00;19.50
73146;PMS7003;61345;48.922;2.244;2022-07-23T09:20:14;41.00;32.50;18.50
73146;PMS7003;61345;48.922;2.244;2022-07-23T09:22:49;42.75;33.25;20.00
73146;PMS7003;61345;48.922;2.244;2022-07-23T09:25:18;40.50;28.25;17.25
73146;PMS7003;61345;48.922;2.244;2022-07-23T09:30:20;43.00;32.00;19.00
73146;PMS7003;61345;48.922;2.244;2022-07-23T09:38:18;35.75;27.50;18.00
73146;PMS7003;61345;48.922;2.244;2022-07-23T09:40:45;42.00;32.00;19.75
73146;PMS7003;61345;48.922;2.244;2022-07-23T09:43:12;34.25;29.75;16.00
73146;PMS7003;61345;48.922;2.244;2022-07-23T09:45:38;32.25;28.25;19.25
73146;PMS7003;61345;48.922;2.244;2022-07-23T09:48:16;34.25;29.50;18.00
73146;PMS7003;61345;48.922;2.244;2022-07-23T09:50:42;34.50;31.50;17.75
73146;PMS7003;61345;48.922;2.244;2022-07-23T09:53:09;35.25;30.25;19.25
73146;PMS7003;61345;48.922;2.244;2022-07-23T09:55:35;37.50;30.75;19.50
73146;PMS7003;61345;48.922;2.244;2022-07-23T09:58:07;40.50;29.00;18.75
73146;PMS7003;61345;48.922;2.244;2022-07-23T10:00:45;36.00;28.75;19.00
73146;PMS7003;61345;48.922;2.244;2022-07-23T10:03:11;36.25;29.00;19.00
73146;PMS7003;61345;48.922;2.244;2022-07-23T10:05:38;33.75;30.00;17.25
73146;PMS7003;61345;48.922;2.244;2022-07-23T10:08:04;34.50;30.25;19.50
73146;PMS7003;61345;48.922;2.244;2022-07-23T10:10:31;30.00;30.00;19.00
73146;PMS7003;61345;48.922;2.244;2022-07-23T10:12:56;35.50;28.75;17.00
73146;PMS7003;61345;48.922;2.244;2022-07-23T10:15:22;26.50;26.00;18.75
73146;PMS7003;61345;48.922;2.244;2022-07-23T10:17:48;29.75;25.25;17.25
73146;PMS7003;61345;48.922;2.244;2022-07-23T10:20:13;31.75;27.25;17.75
73146;PMS7003;61345;48.922;2.244;2022-07-23T10:22:53;29.50;27.50;18.00
73146;PMS7003;61345;48.922;2.244;2022-07-23T10:28:22;29.75;24.25;16.50
73146;PMS7003;61345;48.922;2.244;2022-07-23T10:31:09;32.00;27.00;18.75
73146;PMS7003;61345;48.922;2.244;2022-07-23T10:36:32;32.75;24.50;16.50
73146;PMS7003;61345;48.922;2.244;2022-07-23T10:39:04;31.50;26.25;17.00
73146;PMS7003;61345;48.922;2.244;2022-07-23T10:41:37;34.25;27.75;18.00
73146;PMS7003;61345;48.922;2.244;2022-07-23T10:47:13;33.50;26.00;16.25
73146;PMS7003;61345;48.922;2.244;2022-07-23T10:49:33;32.75;27.75;17.00
73146;PMS7003;61345;48.922;2.244;2022-07-23T10:52:18;33.25;28.00;19.00
73146;PMS7003;61345;48.922;2.244;2022-07-23T10:54:47;30.00;26.00;17.50
73146;PMS7003;61345;48.922;2.244;2022-07-23T10:57:16;31.00;26.00;18.00
73146;PMS7003;61345;48.922;2.244;2022-07-23T11:02:34;29.50;24.75;16.50
73146;PMS7003;61345;48.922;2.244;2022-07-23T11:05:01;32.75;27.00;15.00
73146;PMS7003;61345;48.922;2.244;2022-07-23T11:07:31;32.75;24.00;16.50
73146;PMS7003;61345;48.922;2.244;2022-07-23T11:09:56;30.00;25.75;16.75
73146;PMS7003;61345;48.922;2.244;2022-07-23T11:15:00;30.75;26.25;16.00
73146;PMS7003;61345;48.922;2.244;2022-07-23T11:17:26;31.00;24.75;15.00
73146;PMS7003;61345;48.922;2.244;2022-07-23T11:25:05;32.75;26.50;16.25
73146;PMS7003;61345;48.922;2.244;2022-07-23T11:27:41;26.75;22.25;14.00
73146;PMS7003;61345;48.922;2.244;2022-07-23T11:30:08;27.00;24.00;16.75
73146;PMS7003;61345;48.922;2.244;2022-07-23T11:32:35;23.75;18.50;12.25
73146;PMS7003;61345;48.922;2.244;2022-07-23T11:35:23;26.00;23.00;16.00
73146;PMS7003;61345;48.922;2.244;2022-07-23T11:37:53;39.00;31.50;19.75
73146;PMS7003;61345;48.922;2.244;2022-07-23T11:40:23;29.50;23.00;17.50
73146;PMS7003;61345;48.922;2.244;2022-07-23T11:42:57;32.75;28.75;18.50
73146;PMS7003;61345;48.922;2.244;2022-07-23T11:45:31;23.25;21.25;16.50
73146;PMS7003;61345;48.922;2.244;2022-07-23T11:48:04;35.25;28.75;18.25
73146;PMS7003;61345;48.922;2.244;2022-07-23T11:50:31;38.00;29.50;19.25
73146;PMS7003;61345;48.922;2.244;2022-07-23T11:52:57;35.00;28.00;17.50
73146;PMS7003;61345;48.922;2.244;2022-07-23T11:55:23;32.00;25.75;17.25
73146;PMS7003;61345;48.922;2.244;2022-07-23T11:57:50;26.75;23.50;15.75
73146;PMS7003;61345;48.922;2.244;2022-07-23T12:00:16;32.00;26.75;18.00
73146;PMS7003;61345;48.922;2.244;2022-07-23T12:02:48;32.50;27.25;16.25
73146;PMS7003;61345;48.922;2.244;2022-07-23T12:05:18;36.50;28.50;18.25
73146;PMS7003;61345;48.922;2.244;2022-07-23T12:07:46;30.00;25.25;16.75
73146;PMS7003;61345;48.922;2.244;2022-07-23T12:10:20;28.75;24.25;17.50
73146;PMS7003;61345;48.922;2.244;2022-07-23T12:15:14;30.00;25.75;17.00
73146;PMS7003;61345;48.922;2.244;2022-07-23T12:17:42;30.00;24.75;15.75
73146;PMS7003;61345;48.922;2.244;2022-07-23T12:20:09;27.50;23.25;17.00
73146;PMS7003;61345;48.922;2.244;2022-07-23T12:22:39;24.75;21.25;15.50
73146;PMS7003;61345;48.922;2.244;2022-07-23T12:27:32;24.50;21.75;15.25
73146;PMS7003;61345;48.922;2.244;2022-07-23T12:29:58;30.00;23.75;16.25
73146;PMS7003;61345;48.922;2.244;2022-07-23T12:32:25;26.50;21.00;14.50
73146;PMS7003;61345;48.922;2.244;2022-07-23T12:35:05;29.00;23.00;14.75
73146;PMS7003;61345;48.922;2.244;2022-07-23T12:37:32;27.75;22.00;14.75
73146;PMS7003;61345;48.922;2.244;2022-07-23T12:40:18;24.25;22.25;15.00
73146;PMS7003;61345;48.922;2.244;2022-07-23T12:42:45;28.25;24.50;16.75
73146;PMS7003;61345;48.922;2.244;2022-07-23T12:45:11;27.25;23.25;16.50
73146;PMS7003;61345;48.922;2.244;2022-07-23T12:50:59;27.75;24.25;17.00
73146;PMS7003;61345;48.922;2.244;2022-07-23T12:53:30;29.75;25.50;16.25
73146;PMS7003;61345;48.922;2.244;2022-07-23T12:58:40;22.50;20.00;14.75
73146;PMS7003;61345;48.922;2.244;2022-07-23T13:01:21;26.50;22.25;14.75
73146;PMS7003;61345;48.922;2.244;2022-07-23T13:06:42;29.25;23.50;16.50
73146;PMS7003;61345;48.922;2.244;2022-07-23T13:09:16;21.25;20.50;14.25
73146;PMS7003;61345;48.922;2.244;2022-07-23T13:11:43;32.75;24.75;16.00
73146;PMS7003;61345;48.922;2.244;2022-07-23T13:14:10;23.50;21.50;14.75
73146;PMS7003;61345;48.922;2.244;2022-07-23T13:16:36;24.50;21.50;15.25
73146;PMS7003;61345;48.922;2.244;2022-07-23T13:19:02;24.25;23.50;17.00
73146;PMS7003;61345;48.922;2.244;2022-07-23T13:21:28;28.00;25.00;18.25
73146;PMS7003;61345;48.922;2.244;2022-07-23T13:23:54;24.00;23.00;16.00
73146;PMS7003;61345;48.922;2.244;2022-07-23T13:26:20;24.50;22.50;16.50
73146;PMS7003;61345;48.922;2.244;2022-07-23T13:28:46;22.75;20.00;14.50
73146;PMS7003;61345;48.922;2.244;2022-07-23T13:31:11;22.50;20.50;15.25
73146;PMS7003;61345;48.922;2.244;2022-07-23T13:33:38;24.75;21.50;14.50
73146;PMS7003;61345;48.922;2.244;2022-07-23T13:36:03;21.25;18.25;12.25
73146;PMS7003;61345;48.922;2.244;2022-07-23T13:38:29;25.25;20.50;15.75
73146;PMS7003;61345;48.922;2.244;2022-07-23T13:40:55;20.25;17.50;13.25
73146;PMS7003;61345;48.922;2.244;2022-07-23T13:43:21;21.00;19.00;13.00
73146;PMS7003;61345;48.922;2.244;2022-07-23T13:45:49;27.00;24.25;16.00
73146;PMS7003;61345;48.922;2.244;2022-07-23T13:48:15;23.50;23.50;15.50
73146;PMS7003;61345;48.922;2.244;2022-07-23T13:50:41;22.50;20.00;13.75
73146;PMS7003;61345;48.922;2.244;2022-07-23T13:53:08;21.50;20.00;14.00
73146;PMS7003;61345;48.922;2.244;2022-07-23T13:55:36;21.00;18.75;14.25
73146;PMS7003;61345;48.922;2.244;2022-07-23T13:58:02;22.25;21.00;14.00
73146;PMS7003;61345;48.922;2.244;2022-07-23T14:00:28;17.75;15.00;11.50
73146;PMS7003;61345;48.922;2.244;2022-07-23T14:02:55;19.25;19.25;12.50
73146;PMS7003;61345;48.922;2.244;2022-07-23T14:05:21;18.50;18.00;13.25
73146;PMS7003;61345;48.922;2.244;2022-07-23T14:07:46;24.50;20.00;14.00
73146;PMS7003;61345;48.922;2.244;2022-07-23T14:10:14;19.75;19.00;14.75
73146;PMS7003;61345;48.922;2.244;2022-07-23T14:12:40;15.50;15.25;11.75
73146;PMS7003;61345;48.922;2.244;2022-07-23T14:15:05;19.00;17.75;13.25
73146;PMS7003;61345;48.922;2.244;2022-07-23T14:17:33;18.75;16.00;13.00
73146;PMS7003;61345;48.922;2.244;2022-07-23T14:19:59;16.00;16.00;11.75
73146;PMS7003;61345;48.922;2.244;2022-07-23T14:22:24;20.00;17.00;13.00
73146;PMS7003;61345;48.922;2.244;2022-07-23T14:24:50;16.50;13.50;9.75